• Join FlightAware (Why Join?)
  • Login
  • US Flag 
08:27PM EDT


 

Airport Tracker/Info


-or-


 

Live Flight TrackerFlight Track Log ✈ AWI3698 ✈ 06-May-2013 ✈ KPHL - KBUF

Flight Track Log - Related Links

Times and Time Zones

All times are in EDT time to prevent confusion due to time zone crossing. See the AWI3698 flight status page for this flight to view local times or setup timezone preferences in your user account.

Time Position Orientation Groundspeed Altitude Reporting Facility
EDT Latitude Longitude Course Direction KTS MPH feet Rate Location/Type
10:08AM 39.8833 -75.1833 303° West 154 177 1,900  Level Philadelphia TRACON
10:10AM 40.1484 -75.4984 323° Northwest  Level FlightAware Approximate
10:10AM 39.9833 -75.2167 346° North 284 327 5,200  Level Philadelphia TRACON
10:11AM 40.2420 -75.5879 311° West  Level FlightAware Approximate
10:11AM 40.0333 -75.2833 314° West 283 326 7,400  Level Philadelphia TRACON
10:12AM 40.3207 -75.7068 308° West  Level FlightAware Approximate
10:12AM 40.0833 -75.3667 308° West 300 345 9,300  Level Philadelphia TRACON
10:13AM 40.3970 -75.8273 303° West  Level FlightAware Approximate
10:13AM 40.1317 -75.4350 313° West 305 351 11,500  Level New York Center
10:15AM 40.2600 -75.6150 313° West 330 380 14,000 1,320 Climbing New York Center
10:17AM 40.3931 -75.8206 310° West 385 443 17,000 1,020 Climbing New York Center
10:18AM 40.4483 -75.9419 301° West 399 459 17,200 720 Climbing New York Center
10:19AM 40.4725 -76.0994 281° West 395 455 18,500 960 Climbing New York Center
10:20AM 40.4972 -76.2458 283° West 410 472 19,100 900 Climbing New York Center
10:22AM 40.5433 -76.5447 282° West 416 479 21,300 1,200 Climbing New York Center
10:24AM 40.6447 -76.8103 297° West 398 458 24,000 1,200 Climbing New York Center
10:25AM 40.7206 -76.9183 313° West 409 471 25,000 780 Climbing New York Center
10:26AM 40.8167 -76.9928 330° Northwest 403 464 25,700 300 Climbing New York Center
10:28AM 41.0167 -77.1514 329° Northwest 408 470 26,000 60 Climbing New York Center
10:31AM 41.2958 -77.3714 329° Northwest 423 487 26,000  Level Cleveland Center
10:32AM 41.3961 -77.4522 329° Northwest 417 480 26,000  Level Cleveland Center
10:33AM 41.4919 -77.5281 329° Northwest 417 480 26,000  Level Cleveland Center
10:34AM 41.5942 -77.6122 328° Northwest 412 474 26,000  Level Cleveland Center
10:36AM 41.7753 -77.7597 329° Northwest 390 449 26,000  Level Cleveland Center
10:37AM 41.8622 -77.8283 330° Northwest 378 435 26,000 -360 Level Cleveland Center
10:39AM 42.0325 -77.9692 328° Northwest 378 435 25,100 -960 Descending Cleveland Center
10:40AM 42.1194 -78.0414 328° Northwest 378 435 23,300 -2,040 Descending Cleveland Center
10:42AM 42.2867 -78.1200 324° Northwest  Level FlightAware Approximate
10:43AM 42.4000 -78.2667 324° Northwest 344 396 16,500  Level Buffalo TRACON
10:44AM 42.4483 -78.3153 323° Northwest 350 403 15,500 -1,800 Descending Cleveland Center
10:46AM 42.6008 -78.4422 329° Northwest 333 383 11,700 -1,920 Descending Cleveland Center
10:47AM 42.6750 -78.5019 329° Northwest 322 371 9,800 -1,920 Descending Cleveland Center
10:48AM 42.7628 -78.5217 351° North 299 344 8,000 -1,440 Descending Cleveland Center
10:49AM 42.8336 -78.5222 360° North 268 308 7,000 -1,320 Descending Cleveland Center
10:51AM 42.9833 -78.5167 North 232 267 3,800 -1,380 Descending Buffalo TRACON
10:52AM 43.0167 -78.6167 295° West 224 258 2,300 -840 Descending Buffalo TRACON
10:54AM 42.9667 -78.7000 231° Southwest 137 158 1,300 -540 Descending Buffalo TRACON